KBRY/BRY METAR and TAF weather

Enter ICAO airport designator
Station Type Date Time Source
KBRY METAR 2019/10/21 03:15 UTC NOAA

KBRY 210315Z AUTO 00000KT 10SM CLR 12/11 A2995 RMK AO1


Station Type Date Time Source
KBRY Decoded METAR 2019/10/21 03:15 UTC NOAA

Station name not available
Oct 20, 2019 - 11:15 PM EDT / 2019.10.21 0315 UTC
Wind: Calm:0
Visibility: 10 mile(s):0
Sky conditions: clear
Temperature: 53 F (12 C)
Dew Point: 51 F (11 C)
Relative Humidity: 93%
Pressure (altimeter): 29.95 in. Hg (1014 hPa)
ob: KBRY 210315Z AUTO 00000KT 10SM CLR 12/11 A2995 RMK AO1
cycle: 3

Station Type Date Time Source
KBRY TAF UTC NOAA

Error!

Example: see airport list